KPNS Airport Information


Runway Information
Runway 08 Length 7000 ft width 150 ft
Elevation 97 ft Threshold 0 ft Heading 78
Runway 26 Length 7000 ft Width 150 ft
Elevation 114 ft Threshold 0 ft Heading 258
Runway 17 Length 7004 ft width 150 ft
Elevation 121 ft Threshold 0 ft Heading 167
Runway 35 Length 7004 ft Width 150 ft
Elevation 103 ft Threshold 0 ft Heading 347
Airport Frequencies
Type A/D Name APP/DEP Frequency 118.6 MHZ
Type ATIS Name ATIS Frequency 121.25 MHZ
Type CLD Name CLNC DEL Frequency 123.725 MHZ
Type CTAF Name CTAF Frequency 119.9 MHZ
Type GND Name GND Frequency 121.9 MHZ
Type RDO Name GAINESVILL Frequency 122.2 MHZ
Type TWR Name TWR Frequency 119.9 MHZ
Type UNIC Name UNICOM Frequency 122.95 MHZ
Airport Navaids
Type NDB Name Pickens Frequency 326 KHZ
Airport Weather Information & NOTAM
ADDS - METARS form results

(2050 UTC 25 January 2022)
Data provider http://aviationweather.gov/metar/data/
 
METAR text: KPNS 252048Z 05007KT 1 3/4SM R17/6000VP6000FT -RA BR OVC007 11/10 A2997 RMK AO2 P0008
Conditions at: KPNS (PENSACOLA , FL, US) observed 2048 UTC 25 January 2022
Temperature: 11.0°C (52°F)
Dewpoint: 10.0°C (50°F) [RH = 94%]
Pressure (altimeter): 29.97 inches Hg (1015.0 mb)
Winds: from the NE (50 degrees) at 8 MPH (7 knots; 3.6 m/s)
Visibility: 1.75 miles (2.82 km)
Ceiling: 700 feet AGL
Clouds: overcast cloud deck at 700 feet AGL
Weather: -RA BR  (light rain, mist)

METAR text: KPNS 252041Z 03007KT 2SM R17/6000VP6000FT -RA BR OVC005 11/10 A2997 RMK AO2 CIG 004V009 P0007 T01110100
Conditions at: KPNS (PENSACOLA , FL, US) observed 2041 UTC 25 January 2022
Temperature: 11.1°C (52°F)
Dewpoint: 10.0°C (50°F) [RH = 93%]
Pressure (altimeter): 29.97 inches Hg (1015.0 mb)
Winds: from the NNE (30 degrees) at 8 MPH (7 knots; 3.6 m/s)
Visibility: 2.00 miles (3.22 km)
Ceiling: 500 feet AGL
Clouds: overcast cloud deck at 500 feet AGL
Weather: -RA BR  (light rain, mist)

METAR text: KPNS 252020Z 01004KT 4SM -RA BR OVC004 11/10 A2997 RMK AO2 P0005 T01110100
Conditions at: KPNS (PENSACOLA , FL, US) observed 2020 UTC 25 January 2022
Temperature: 11.1°C (52°F)
Dewpoint: 10.0°C (50°F) [RH = 93%]
Pressure (altimeter): 29.97 inches Hg (1015.0 mb)
Winds: from the N (10 degrees) at 5 MPH (4 knots; 2.1 m/s)
Visibility: 4 miles ( 6 km)
Ceiling: 400 feet AGL
Clouds: overcast cloud deck at 400 feet AGL
Weather: -RA BR  (light rain, mist)

METAR text: KPNS 251953Z 05005KT 2 1/2SM RA BR OVC002 11/10 A2995 RMK AO2 SLP146 P0007 T01060100
Conditions at: KPNS (PENSACOLA , FL, US) observed 1953 UTC 25 January 2022
Temperature: 10.6°C (51°F)
Dewpoint: 10.0°C (50°F) [RH = 96%]
Pressure (altimeter): 29.95 inches Hg (1014.3 mb)
[Sea-level pressure: 1014.6 mb]
Winds: from the NE (50 degrees) at 6 MPH (5 knots; 2.6 m/s)
Visibility: 2.50 miles (4.02 km)
Ceiling: 200 feet AGL
Clouds: overcast cloud deck at 200 feet AGL
Weather: RA BR  (moderate rain, mist)

Forecast for: KPNS (PENSACOLA , FL, US)
Text: KPNS 251931Z 2520/2618 03007KT 3SM -RA BR OVC005
Forecast period: 2000 to 2100 UTC 25 January 2022
Forecast type: FROM: standard forecast or significant change
Winds: from the NNE (30 degrees) at 8 MPH (7 knots; 3.6 m/s)
Visibility: 3 miles (5 km)
Ceiling: 500 feet AGL
Clouds: overcast cloud deck at 500 feet AGL
Weather: -RA BR  (light rain, mist)
Text: TEMPO 2520/2521 2SM -RA BR OVC003
Forecast period: 2000 to 2100 UTC 25 January 2022
Forecast type: TEMPORARY: The following changes expected for less than half the time period
Visibility: 2.00 miles (3.22 km)
Ceiling: 300 feet AGL
Clouds: overcast cloud deck at 300 feet AGL
Weather: -RA BR  (light rain, mist)
Text: FM252100 02009KT 4SM -RA BR OVC007
Forecast period: 2100 UTC 25 January 2022 to 0200 UTC 26 January 2022
Forecast type: FROM: standard forecast or significant change
Winds: from the NNE (20 degrees) at 10 MPH (9 knots; 4.6 m/s)
Visibility: 4 miles (6 km)
Ceiling: 700 feet AGL
Clouds: overcast cloud deck at 700 feet AGL
Weather: -RA BR  (light rain, mist)
Text: FM260200 02011G18KT P6SM BKN015
Forecast period: 0200 to 0800 UTC 26 January 2022
Forecast type: FROM: standard forecast or significant change
Winds: from the NNE (20 degrees) at 13 MPH (11 knots; 5.7 m/s)
gusting to 21 MPH (18 knots; 9.3 m/s)
Visibility: 6 or more miles (10+ km)
Ceiling: 1500 feet AGL
Clouds: broken clouds at 1500 feet AGL
Weather: no significant weather forecast for this period
Text: FM260800 01012G18KT P6SM SCT050
Forecast period: 0800 to 1800 UTC 26 January 2022
Forecast type: FROM: standard forecast or significant change
Winds: from the N (10 degrees) at 14 MPH (12 knots; 6.2 m/s)
gusting to 21 MPH (18 knots; 9.3 m/s)
Visibility: 6 or more miles (10+ km)
Ceiling: at least 12,000 feet AGL
Clouds: scattered clouds at 5000 feet AGL
Weather: no significant weather forecast for this period